Time,TemperatureF,DewpointF,PressureIn,WindDirection,WindDirectionDegrees,WindSpeedMPH,WindSpeedGustMPH,Humidity,HourlyPrecipIn,Conditions,Clouds,dailyrainin,SolarRadiationWatts/m^2,SoftwareType,DateUTC
2013-10-19 00:02:00,44.0,20.0,-100.00,ENE,70,0.0,0.0,38,0.00,,,0.00,0.000000,,2013-10-19 07:02:00,
2013-10-19 00:03:00,46.0,19.0,-100.00,NNE,18,0.0,0.0,33,0.00,,,0.00,0.000000,,2013-10-19 07:03:00,
2013-10-19 00:42:00,46.0,19.0,-100.00,NNE,18,0.0,0.0,33,0.00,,,0.00,0.000000,,2013-10-19 07:42:00,
2013-10-19 00:52:00,46.0,19.0,-100.00,NNE,18,0.0,0.0,33,0.00,,,0.00,0.000000,,2013-10-19 07:52:00,
2013-10-19 01:22:00,45.0,18.0,-100.00,SSE,157,0.0,0.0,34,0.00,,,0.00,0.000000,,2013-10-19 08:22:00,
2013-10-19 01:32:00,45.0,18.0,-100.00,SSE,157,0.0,0.0,34,0.00,,,0.00,0.000000,,2013-10-19 08:32:00,
2013-10-19 01:42:00,45.0,18.0,-100.00,SSE,157,0.0,0.0,34,0.00,,,0.00,0.000000,,2013-10-19 08:42:00,
2013-10-19 01:52:00,45.0,18.0,-100.00,SSE,157,0.0,0.0,34,0.00,,,0.00,0.000000,,2013-10-19 08:52:00,
2013-10-19 02:01:00,45.0,18.0,-100.00,SSE,157,0.0,0.0,34,0.00,,,0.00,0.000000,,2013-10-19 09:01:00,
2013-10-19 02:03:00,42.0,19.0,-100.00,North,6,0.0,0.0,39,0.00,,,-99.99,0.000000,,2013-10-19 09:03:00,
2013-10-19 02:43:00,42.0,19.0,-100.00,North,6,0.0,0.0,39,0.00,,,-99.99,0.000000,,2013-10-19 09:43:00,
2013-10-19 02:54:00,42.0,19.0,-100.00,North,6,0.0,0.0,39,0.00,,,-99.99,0.000000,,2013-10-19 09:54:00,
2013-10-19 03:42:00,42.0,16.0,-100.00,North,3,0.0,0.0,35,0.00,,,0.00,0.000000,,2013-10-19 10:42:00,
2013-10-19 03:53:00,42.0,16.0,-100.00,North,3,0.0,0.0,35,0.00,,,0.00,0.000000,,2013-10-19 10:53:00,
2013-10-19 04:02:00,42.0,16.0,-100.00,North,3,0.0,0.0,35,0.00,,,0.00,0.000000,,2013-10-19 11:02:00,
2013-10-19 04:42:00,43.0,16.0,-100.00,SW,226,0.0,0.0,33,0.00,,,0.00,0.000000,,2013-10-19 11:42:00,
2013-10-19 04:52:00,43.0,16.0,-100.00,SW,226,0.0,0.0,33,0.00,,,0.00,0.000000,,2013-10-19 11:52:00,
2013-10-19 05:01:00,43.0,16.0,-100.00,SW,226,0.0,0.0,33,0.00,,,0.00,0.000000,,2013-10-19 12:01:00,
2013-10-19 05:43:00,43.0,15.0,-100.00,North,4,0.0,0.0,32,0.00,,,0.00,0.000000,,2013-10-19 12:43:00,
2013-10-19 05:52:00,43.0,15.0,-100.00,North,4,0.0,0.0,32,0.00,,,0.00,0.000000,,2013-10-19 12:52:00,
2013-10-19 06:01:00,43.0,15.0,-100.00,North,4,0.0,0.0,32,0.00,,,0.00,0.000000,,2013-10-19 13:01:00,
2013-10-19 06:42:00,42.0,16.0,-100.00,NNE,18,0.0,0.0,34,0.00,,,0.00,0.000000,,2013-10-19 13:42:00,
2013-10-19 06:52:00,42.0,16.0,-100.00,NNE,18,0.0,0.0,34,0.00,,,0.00,0.000000,,2013-10-19 13:52:00,
2013-10-19 07:01:00,42.0,16.0,-100.00,NNE,18,0.0,0.0,34,0.00,,,0.00,0.000000,,2013-10-19 14:01:00,
2013-10-19 07:42:00,43.0,17.0,-100.00,North,7,0.0,0.0,34,0.00,,,0.00,2.000000,,2013-10-19 14:42:00,
2013-10-19 07:52:00,43.0,17.0,-100.00,North,7,0.0,0.0,34,0.00,,,0.00,2.000000,,2013-10-19 14:52:00,
2013-10-19 08:02:00,43.0,17.0,-100.00,North,7,0.0,0.0,34,0.00,,,0.00,2.000000,,2013-10-19 15:02:00,
2013-10-19 08:03:00,44.0,17.0,-100.00,NNE,14,0.0,0.0,34,0.00,,,0.00,15.000000,,2013-10-19 15:03:00,
2013-10-19 08:44:00,44.0,17.0,-100.00,NNE,14,0.0,0.0,34,0.00,,,0.00,15.000000,,2013-10-19 15:44:00,
2013-10-19 08:55:00,44.0,17.0,-100.00,NNE,14,0.0,0.0,34,0.00,,,0.00,15.000000,,2013-10-19 15:55:00,
2013-10-19 09:03:00,55.0,23.0,-100.00,North,6,0.0,0.0,28,0.00,,,0.00,240.000000,,2013-10-19 16:03:00,
2013-10-19 09:24:00,55.0,23.0,-100.00,North,6,0.0,0.0,28,0.00,,,0.00,240.000000,,2013-10-19 16:24:00,
2013-10-19 09:33:00,55.0,23.0,-100.00,North,6,0.0,0.0,28,0.00,,,0.00,240.000000,,2013-10-19 16:33:00,
2013-10-19 09:43:00,55.0,23.0,-100.00,North,6,0.0,0.0,28,0.00,,,0.00,240.000000,,2013-10-19 16:43:00,
2013-10-19 09:53:00,55.0,23.0,-100.00,North,6,0.0,0.0,28,0.00,,,0.00,240.000000,,2013-10-19 16:53:00,
2013-10-19 10:43:00,67.0,25.0,-100.00,ENE,74,0.0,0.0,20,0.00,,,0.00,535.000000,,2013-10-19 17:43:00,
2013-10-19 10:52:00,67.0,25.0,-100.00,ENE,74,0.0,0.0,20,0.00,,,0.00,535.000000,,2013-10-19 17:52:00,
2013-10-19 11:02:00,67.0,25.0,-100.00,ENE,74,0.0,0.0,20,0.00,,,0.00,535.000000,,2013-10-19 18:02:00,
2013-10-19 11:42:00,69.0,26.0,-100.00,SSE,161,0.0,0.0,20,0.00,,,0.00,662.000000,,2013-10-19 18:42:00,
2013-10-19 11:52:00,69.0,26.0,-100.00,SSE,161,0.0,0.0,20,0.00,,,0.00,662.000000,,2013-10-19 18:52:00,
2013-10-19 12:02:00,69.0,26.0,-100.00,SSE,161,0.0,0.0,20,0.00,,,0.00,662.000000,,2013-10-19 19:02:00,
2013-10-19 12:03:00,72.0,27.0,-100.00,SSE,166,0.0,0.0,19,0.00,,,0.00,728.000000,,2013-10-19 19:03:00,
2013-10-19 12:22:00,72.0,27.0,-100.00,SSE,166,0.0,0.0,19,0.00,,,0.00,728.000000,,2013-10-19 19:22:00,
2013-10-19 12:32:00,72.0,27.0,-100.00,SSE,166,0.0,0.0,19,0.00,,,0.00,728.000000,,2013-10-19 19:32:00,
2013-10-19 12:42:00,72.0,27.0,-100.00,SSE,166,0.0,0.0,19,0.00,,,0.00,728.000000,,2013-10-19 19:42:00,
2013-10-19 12:52:00,72.0,27.0,-100.00,SSE,166,0.0,0.0,19,0.00,,,0.00,728.000000,,2013-10-19 19:52:00,
2013-10-19 13:42:00,75.0,26.0,-100.00,South,171,0.0,0.0,16,0.00,,,0.00,728.000000,,2013-10-19 20:42:00,
2013-10-19 13:52:00,75.0,26.0,-100.00,South,171,0.0,0.0,16,0.00,,,0.00,728.000000,,2013-10-19 20:52:00,
2013-10-19 14:02:00,75.0,26.0,-100.00,South,171,0.0,0.0,16,0.00,,,0.00,728.000000,,2013-10-19 21:02:00,
2013-10-19 14:03:00,75.0,24.0,-100.00,NNE,29,0.0,0.0,15,0.00,,,0.00,667.000000,,2013-10-19 21:03:00,
2013-10-19 14:44:00,75.0,24.0,-100.00,NNE,29,0.0,0.0,15,0.00,,,0.00,667.000000,,2013-10-19 21:44:00,
2013-10-19 14:54:00,75.0,24.0,-100.00,NNE,29,0.0,0.0,15,0.00,,,0.00,667.000000,,2013-10-19 21:54:00,
2013-10-19 15:03:00,76.0,25.0,-100.00,South,173,0.0,0.0,15,0.00,,,0.00,551.000000,,2013-10-19 22:03:00,
2013-10-19 15:43:00,76.0,25.0,-100.00,South,173,0.0,0.0,15,0.00,,,0.00,551.000000,,2013-10-19 22:43:00,
2013-10-19 15:53:00,76.0,25.0,-100.00,South,173,0.0,0.0,15,0.00,,,0.00,551.000000,,2013-10-19 22:53:00,
2013-10-19 19:42:00,52.0,24.0,-100.00,NNE,12,0.0,0.0,33,-99.99,,,0.00,0.000000,,2013-10-20 02:42:00,
2013-10-19 19:52:00,52.0,24.0,-100.00,NNE,12,0.0,0.0,33,-99.99,,,0.00,0.000000,,2013-10-20 02:52:00,
2013-10-19 20:02:00,52.0,24.0,-100.00,NNE,12,0.0,0.0,33,-99.99,,,0.00,0.000000,,2013-10-20 03:02:00,
2013-10-19 20:44:00,50.0,25.0,-100.00,ESE,117,0.0,0.0,38,0.00,,,0.00,0.000000,,2013-10-20 03:44:00,
2013-10-19 20:54:00,50.0,25.0,-100.00,ESE,117,0.0,0.0,38,0.00,,,0.00,0.000000,,2013-10-20 03:54:00,
2013-10-19 21:02:00,-999.0,-99.9,-100.00,ESE,117,0.0,0.0,-999,-99.99,,,-99.99,0.000000,,2013-10-20 04:02:00,
2013-10-19 21:03:00,49.0,20.0,-100.00,North,6,0.0,0.0,32,0.00,,,0.00,0.000000,,2013-10-20 04:03:00,
2013-10-19 21:44:00,49.0,20.0,-100.00,North,6,0.0,0.0,32,0.00,,,0.00,0.000000,,2013-10-20 04:44:00,
2013-10-19 21:54:00,49.0,20.0,-100.00,North,6,0.0,0.0,32,0.00,,,0.00,0.000000,,2013-10-20 04:54:00,
2013-10-19 22:43:00,49.0,20.0,-100.00,North,4,0.0,0.0,31,0.00,,,0.00,0.000000,,2013-10-20 05:43:00,
2013-10-19 22:52:00,49.0,20.0,-100.00,North,4,0.0,0.0,31,0.00,,,0.00,0.000000,,2013-10-20 05:52:00,
2013-10-19 23:02:00,49.0,20.0,-100.00,North,4,0.0,0.0,31,0.00,,,0.00,0.000000,,2013-10-20 06:02:00,
2013-10-19 23:42:00,46.0,18.0,-100.00,North,1,0.0,0.0,32,0.00,,,0.00,0.000000,,2013-10-20 06:42:00,
2013-10-19 23:52:00,46.0,18.0,-100.00,North,1,0.0,0.0,32,0.00,,,0.00,0.000000,,2013-10-20 06:52:00,